Guinda, California
Current Conditions -  °F | °C
As of 12:53 PM on Tuesday 21 Oct 2014 (Local Time) from KSMF Reporting Station
Scattered Clouds Scattered Clouds  
Wind Chill: 68°   Ceiling: Unl
Heat Index: 68°   Visibility: 10mi
Dew Point: 45°   Wind: 7mph
Humidity: 43%   Direction: 320°NW
Pressure: 30.06"   Gusts: NA
Location:  38.83°N, 122.2°W
Report Text: KSMF 211953Z 32006KT 10SM FEW150 SCT250 20/07 A3006 RMK AO2 SLP177 T02000072
Loading
Personal Weather Stations






























Interactive Weather Map
Tropical Storm Tracking
New forecast layout! Learn more

10-Day Weather Forecast

Advertisements
Track Severe Weather on mobile